createdAt,value
2019-05-23T00:00:34.983Z,1009.22
2019-05-23T00:01:34.617Z,1009.28
2019-05-23T00:02:34.235Z,1009.28
2019-05-23T00:03:33.784Z,1009.20
2019-05-23T00:04:33.491Z,1009.23
2019-05-23T00:05:33.069Z,1009.30
2019-05-23T00:06:32.690Z,1009.27
2019-05-23T00:07:32.322Z,1009.23
2019-05-23T00:08:36.733Z,1009.25
2019-05-23T00:09:35.307Z,1009.27
2019-05-23T00:10:34.832Z,1009.27
2019-05-23T00:11:34.449Z,1009.29
2019-05-23T00:12:34.071Z,1009.20
2019-05-23T00:13:33.757Z,1009.24
2019-05-23T00:14:33.397Z,1009.22
2019-05-23T00:15:32.952Z,1009.19
2019-05-23T00:16:32.601Z,1009.20
2019-05-23T00:17:36.990Z,1009.22
2019-05-23T00:18:35.614Z,1009.16
2019-05-23T00:19:35.172Z,1009.22
2019-05-23T00:20:34.756Z,1009.15
2019-05-23T00:21:34.375Z,1009.25
2019-05-23T00:22:34.007Z,1009.16
2019-05-23T00:23:41.859Z,1009.20
2019-05-23T00:24:40.355Z,1009.16
2019-05-23T00:25:39.868Z,1009.12
2019-05-23T00:26:39.460Z,1009.16
2019-05-23T00:27:39.046Z,1009.08
2019-05-23T00:28:43.422Z,1009.19
2019-05-23T00:29:42.046Z,1009.03
2019-05-23T00:30:41.636Z,1009.08
2019-05-23T00:31:41.237Z,1009.12
2019-05-23T00:32:40.870Z,1009.09
2019-05-23T00:33:40.504Z,1009.10
2019-05-23T00:34:40.117Z,1009.15
2019-05-23T00:35:39.793Z,1009.03
2019-05-23T00:36:39.484Z,1009.07
2019-05-23T00:37:39.182Z,1009.09
2019-05-23T00:38:39.063Z,1009.01
2019-05-23T00:39:38.566Z,1009.01
2019-05-23T00:40:38.191Z,1009.03
2019-05-23T00:41:42.516Z,1009.03
2019-05-23T00:42:41.107Z,1009.01
2019-05-23T00:43:40.730Z,1008.98
2019-05-23T00:44:40.354Z,1008.99
2019-05-23T00:45:40.000Z,1009.05
2019-05-23T00:46:39.642Z,1009.01
2019-05-23T00:47:43.967Z,1008.95
2019-05-23T00:48:47.456Z,1009.07
2019-05-23T00:49:46.037Z,1009.03
2019-05-23T00:50:45.613Z,1009.00
2019-05-23T00:51:45.328Z,1009.03
2019-05-23T00:52:44.998Z,1009.03
2019-05-23T00:53:44.592Z,1009.04
2019-05-23T00:54:44.221Z,1009.04
2019-05-23T00:55:43.867Z,1009.03
2019-05-23T00:56:43.405Z,1009.05
2019-05-23T00:57:51.316Z,1009.04
2019-05-23T00:58:49.749Z,1009.00
2019-05-23T00:59:49.343Z,1009.05
2019-05-23T01:00:49.122Z,1008.99
2019-05-23T01:01:48.632Z,1009.07
2019-05-23T01:02:48.242Z,1009.04
2019-05-23T01:03:47.895Z,1009.04
2019-05-23T01:04:47.512Z,1009.02
2019-05-23T01:05:47.069Z,1009.08
2019-05-23T01:06:46.707Z,1009.03
2019-05-23T01:07:46.371Z,1009.03
2019-05-23T01:08:45.963Z,1009.11
2019-05-23T01:09:45.653Z,1009.09
2019-05-23T01:10:49.995Z,1009.08
2019-05-23T01:11:48.612Z,1009.07
2019-05-23T01:12:53.034Z,1009.04
2019-05-23T01:13:51.508Z,1009.00
2019-05-23T01:14:51.208Z,1009.10
2019-05-23T01:15:50.783Z,1009.10
2019-05-23T01:16:50.405Z,1008.98
2019-05-23T01:17:49.943Z,1009.05
2019-05-23T01:18:49.574Z,1009.12
2019-05-23T01:19:49.216Z,1009.04
2019-05-23T01:20:48.842Z,1009.06
2019-05-23T01:21:48.400Z,1008.95
2019-05-23T01:22:48.052Z,1009.05
2019-05-23T01:23:47.651Z,1009.06
2019-05-23T01:24:51.941Z,1009.05
2019-05-23T01:25:50.668Z,1009.11
2019-05-23T01:26:50.194Z,1009.06
2019-05-23T01:27:49.873Z,1009.01
2019-05-23T01:28:49.446Z,1009.03
2019-05-23T01:29:50.151Z,1009.06
2019-05-23T01:30:53.415Z,1009.03
2019-05-23T01:31:52.052Z,1009.05
2019-05-23T01:32:56.437Z,1008.99
2019-05-23T01:33:54.994Z,1009.05
2019-05-23T01:34:59.373Z,1009.05
2019-05-23T01:35:57.975Z,1008.98
2019-05-23T01:36:57.591Z,1008.95
2019-05-23T01:37:57.086Z,1008.95
2019-05-23T01:38:56.712Z,1009.03
2019-05-23T01:39:56.329Z,1009.02
2019-05-23T01:40:55.914Z,1009.01
2019-05-23T01:41:55.620Z,1009.00
2019-05-23T01:42:55.334Z,1009.02
2019-05-23T01:43:54.956Z,1009.03
2019-05-23T01:44:54.573Z,1008.98
2019-05-23T01:45:54.090Z,1009.03
2019-05-23T01:46:53.774Z,1009.05
2019-05-23T01:48:01.648Z,1009.01
2019-05-23T01:49:00.049Z,1008.99
2019-05-23T01:49:59.684Z,1009.01
2019-05-23T01:50:59.315Z,1009.03
2019-05-23T01:51:58.913Z,1009.05
2019-05-23T01:52:58.522Z,1009.02
2019-05-23T01:53:58.047Z,1008.99
2019-05-23T01:54:57.669Z,1008.94
2019-05-23T01:56:02.002Z,1008.99
2019-05-23T01:57:00.593Z,1008.98
2019-05-23T01:58:00.150Z,1008.94
2019-05-23T01:58:59.746Z,1008.96
2019-05-23T02:00:10.401Z,1009.01
2019-05-23T02:00:58.906Z,1009.00
2019-05-23T02:01:58.596Z,1009.01
2019-05-23T02:02:58.269Z,1008.90
2019-05-23T02:03:57.818Z,1008.98
2019-05-23T02:04:57.441Z,1008.97
2019-05-23T02:05:57.037Z,1008.99
2019-05-23T02:06:56.812Z,1008.98
2019-05-23T02:07:56.324Z,1008.90
2019-05-23T02:08:55.960Z,1008.96
2019-05-23T02:10:00.320Z,1008.92
2019-05-23T02:10:58.891Z,1008.96
2019-05-23T02:11:58.489Z,1008.97
2019-05-23T02:12:58.090Z,1009.01
2019-05-23T02:13:57.725Z,1008.93
2019-05-23T02:14:57.400Z,1008.96
2019-05-23T02:15:56.993Z,1008.94
2019-05-23T02:16:56.671Z,1009.00
2019-05-23T02:17:56.235Z,1009.00
2019-05-23T02:18:55.808Z,1008.96
2019-05-23T02:19:55.446Z,1009.01
2019-05-23T02:20:55.075Z,1008.88
2019-05-23T02:21:54.690Z,1008.97
2019-05-23T02:22:54.284Z,1008.92
2019-05-23T02:23:53.853Z,1009.02
2019-05-23T02:24:53.445Z,1009.01
2019-05-23T02:25:53.077Z,1008.97
2019-05-23T02:26:52.677Z,1008.99
2019-05-23T02:27:52.307Z,1008.93
2019-05-23T02:28:51.848Z,1008.87
2019-05-23T02:29:51.396Z,1008.94
2019-05-23T02:30:51.044Z,1008.94
2019-05-23T02:31:50.662Z,1008.90
2019-05-23T02:32:50.245Z,1008.95
2019-05-23T02:33:49.874Z,1008.90
2019-05-23T02:34:49.448Z,1008.91
2019-05-23T02:35:49.027Z,1008.94
2019-05-23T02:36:48.671Z,1008.89
2019-05-23T02:37:48.323Z,1008.90
2019-05-23T02:38:47.909Z,1008.89
2019-05-23T02:39:52.303Z,1008.93
2019-05-23T02:40:50.965Z,1008.95
2019-05-23T02:41:50.496Z,1008.95
2019-05-23T02:42:49.884Z,1008.93
2019-05-23T02:43:49.669Z,1008.98
2019-05-23T02:44:49.158Z,1009.00
2019-05-23T02:45:48.925Z,1008.91
2019-05-23T02:46:48.477Z,1008.92
2019-05-23T02:47:48.059Z,1008.90
2019-05-23T02:48:47.657Z,1008.87
2019-05-23T02:49:47.303Z,1008.93
2019-05-23T02:50:51.713Z,1008.89
2019-05-23T02:51:50.277Z,1008.91
2019-05-23T02:52:49.851Z,1008.96
2019-05-23T02:53:49.543Z,1008.94
2019-05-23T02:54:49.143Z,1008.89
2019-05-23T02:55:48.658Z,1008.87
2019-05-23T02:56:48.213Z,1008.90
2019-05-23T02:57:47.849Z,1008.95
2019-05-23T02:58:47.423Z,1008.92
2019-05-23T02:59:47.101Z,1008.89
2019-05-23T03:00:54.185Z,1008.89
2019-05-23T03:01:46.381Z,1008.92
2019-05-23T03:02:45.939Z,1008.85
2019-05-23T03:03:45.592Z,1008.89
2019-05-23T03:04:45.221Z,1008.89
2019-05-23T03:05:44.786Z,1008.77
2019-05-23T03:06:52.712Z,1008.78
2019-05-23T03:07:51.177Z,1008.83
2019-05-23T03:08:50.684Z,1008.83
2019-05-23T03:09:50.396Z,1008.80
2019-05-23T03:10:49.962Z,1008.81
2019-05-23T03:11:49.546Z,1008.81
2019-05-23T03:12:49.247Z,1008.83
2019-05-23T03:13:48.844Z,1008.82
2019-05-23T03:14:48.443Z,1008.80
2019-05-23T03:15:48.075Z,1008.79
2019-05-23T03:16:47.728Z,1008.81
2019-05-23T03:17:47.380Z,1008.83
2019-05-23T03:18:46.983Z,1008.75
2019-05-23T03:19:46.583Z,1008.74
2019-05-23T03:20:54.542Z,1008.83
2019-05-23T03:21:52.995Z,1008.85
2019-05-23T03:22:52.645Z,1008.81
2019-05-23T03:23:52.231Z,1008.82
2019-05-23T03:24:51.879Z,1008.88
2019-05-23T03:25:51.552Z,1008.83
2019-05-23T03:26:51.228Z,1008.85
2019-05-23T03:27:59.647Z,1008.90
2019-05-23T03:28:58.051Z,1008.88
2019-05-23T03:29:57.627Z,1008.85
2019-05-23T03:31:25.123Z,1008.90
2019-05-23T03:31:56.847Z,1008.90
2019-05-23T03:32:56.378Z,1008.94
2019-05-23T03:33:55.938Z,1008.97
2019-05-23T03:34:55.646Z,1008.84
2019-05-23T03:35:55.198Z,1008.89
2019-05-23T03:36:54.848Z,1008.84
2019-05-23T03:37:54.391Z,1008.92
2019-05-23T03:38:53.961Z,1008.90
2019-05-23T03:39:53.548Z,1008.97
2019-05-23T03:40:53.160Z,1008.92
2019-05-23T03:41:52.693Z,1008.97
2019-05-23T03:42:52.199Z,1008.90
2019-05-23T03:43:51.854Z,1008.91
2019-05-23T03:44:53.125Z,1008.97
2019-05-23T03:45:52.077Z,1008.99
2019-05-23T03:46:51.704Z,1009.00
2019-05-23T03:47:51.227Z,1008.97
2019-05-23T03:48:50.790Z,1009.01
2019-05-23T03:50:07.365Z,1009.00
2019-05-23T03:51:10.450Z,1008.97
2019-05-23T03:52:09.004Z,1009.03
2019-05-23T03:53:08.565Z,1008.99
2019-05-23T03:54:08.126Z,1008.95
2019-05-23T03:55:07.786Z,1009.00
2019-05-23T03:56:07.324Z,1008.97
2019-05-23T03:57:06.893Z,1009.02
2019-05-23T03:58:11.179Z,1009.05
2019-05-23T03:59:09.845Z,1008.97
2019-05-23T04:00:09.347Z,1008.98
2019-05-23T04:01:09.032Z,1009.00
2019-05-23T04:02:08.621Z,1009.04
2019-05-23T04:03:08.156Z,1009.04
2019-05-23T04:04:07.783Z,1009.04
2019-05-23T04:05:12.111Z,1009.00
2019-05-23T04:06:10.666Z,1009.04
2019-05-23T04:07:10.045Z,1009.06
2019-05-23T04:08:09.804Z,1008.99
2019-05-23T04:09:09.337Z,1008.96
2019-05-23T04:10:17.031Z,1008.91
2019-05-23T04:11:20.158Z,1008.93
2019-05-23T04:12:18.600Z,1008.98
2019-05-23T04:13:21.191Z,1008.98
2019-05-23T04:14:20.064Z,1008.93
2019-05-23T04:15:19.598Z,1008.93
2019-05-23T04:16:19.205Z,1008.95
2019-05-23T04:17:18.807Z,1008.94
2019-05-23T04:18:18.359Z,1008.97
2019-05-23T04:19:18.002Z,1008.99
2019-05-23T04:20:17.369Z,1008.97
2019-05-23T04:21:17.008Z,1008.96
2019-05-23T04:22:16.443Z,1008.88
2019-05-23T04:23:16.251Z,1008.86
2019-05-23T04:24:15.609Z,1008.89
2019-05-23T04:25:15.103Z,1008.89
2019-05-23T04:26:14.614Z,1008.84
2019-05-23T04:27:14.152Z,1008.83
2019-05-23T04:28:13.997Z,1008.87
2019-05-23T04:29:13.323Z,1008.85
2019-05-23T04:30:12.986Z,1008.87
2019-05-23T04:31:13.363Z,1008.90
2019-05-23T04:32:12.147Z,1008.86
2019-05-23T04:33:11.853Z,1008.83
2019-05-23T04:34:11.153Z,1008.84
2019-05-23T04:35:12.610Z,1008.86
2019-05-23T04:36:16.627Z,1008.81
2019-05-23T04:37:15.248Z,1008.92
2019-05-23T04:38:14.668Z,1008.88
2019-05-23T04:39:14.175Z,1008.87
2019-05-23T04:40:13.665Z,1008.91
2019-05-23T04:41:13.172Z,1008.90
2019-05-23T04:42:17.542Z,1008.88
2019-05-23T04:43:18.438Z,1008.88
2019-05-23T04:44:17.299Z,1008.95
2019-05-23T04:45:16.703Z,1008.95
2019-05-23T04:46:16.167Z,1008.98
2019-05-23T04:47:20.646Z,1008.95
2019-05-23T04:48:19.340Z,1008.96
2019-05-23T04:49:18.730Z,1008.91
2019-05-23T04:50:18.283Z,1008.97
2019-05-23T04:51:17.769Z,1008.95
2019-05-23T04:52:17.255Z,1008.98
2019-05-23T04:53:16.781Z,1009.02
2019-05-23T04:54:16.513Z,1009.00
2019-05-23T04:55:15.844Z,1009.02
2019-05-23T04:56:15.352Z,1009.03
2019-05-23T04:57:14.821Z,1009.15
2019-05-23T04:58:14.407Z,1009.03
2019-05-23T04:59:13.838Z,1009.06
2019-05-23T05:00:13.417Z,1009.09
2019-05-23T05:01:12.999Z,1009.08
2019-05-23T05:02:25.691Z,1009.05
2019-05-23T05:03:18.554Z,1009.02
2019-05-23T05:04:15.876Z,1009.03
2019-05-23T05:05:15.444Z,1008.96
2019-05-23T05:06:14.961Z,1009.03
2019-05-23T05:07:14.511Z,1008.99
2019-05-23T05:08:14.229Z,1009.09
2019-05-23T05:09:18.732Z,1009.09
2019-05-23T05:10:17.303Z,1009.02
2019-05-23T05:11:16.845Z,1009.07
2019-05-23T05:12:21.146Z,1009.04
2019-05-23T05:13:19.768Z,1008.97
2019-05-23T05:14:19.267Z,1009.03
2019-05-23T05:15:18.908Z,1009.02
2019-05-23T05:16:18.501Z,1009.01
2019-05-23T05:17:18.043Z,1009.03
2019-05-23T05:18:17.643Z,1008.87
2019-05-23T05:19:17.374Z,1009.01
2019-05-23T05:20:16.950Z,1009.07
2019-05-23T05:21:24.143Z,1009.00
2019-05-23T05:22:22.570Z,1008.96
2019-05-23T05:23:22.257Z,1009.14
2019-05-23T05:24:21.771Z,1008.99
2019-05-23T05:25:26.280Z,1009.15
2019-05-23T05:26:24.897Z,1009.07
2019-05-23T05:27:24.339Z,1009.08
2019-05-23T05:28:23.981Z,1009.14
2019-05-23T05:29:23.665Z,1009.08
2019-05-23T05:30:23.327Z,1009.16
2019-05-23T05:31:27.727Z,1009.09
2019-05-23T05:32:42.893Z,1009.10
2019-05-23T05:33:30.751Z,1009.10
2019-05-23T05:34:29.178Z,1009.14
2019-05-23T05:35:28.670Z,1009.10
2019-05-23T05:36:28.178Z,1009.15
2019-05-23T05:37:27.838Z,1009.16
2019-05-23T05:38:28.690Z,1009.19
2019-05-23T05:39:26.877Z,1009.16
2019-05-23T05:40:26.368Z,1009.12
2019-05-23T05:41:25.895Z,1009.14
2019-05-23T05:42:30.441Z,1009.09
2019-05-23T05:43:29.092Z,1009.14
2019-05-23T05:44:28.668Z,1009.13
2019-05-23T05:45:28.289Z,1009.06
2019-05-23T05:46:28.061Z,1009.10
2019-05-23T05:47:27.500Z,1009.07
2019-05-23T05:48:27.272Z,1009.06
2019-05-23T05:49:26.804Z,1009.20
2019-05-23T05:50:28.147Z,1009.08
2019-05-23T05:51:27.212Z,1009.08
2019-05-23T05:52:26.522Z,1009.11
2019-05-23T05:53:25.998Z,1009.16
2019-05-23T05:54:25.642Z,1009.17
2019-05-23T05:55:25.050Z,1009.18
2019-05-23T05:56:24.753Z,1009.18
2019-05-23T05:57:24.150Z,1009.18
2019-05-23T05:58:23.872Z,1009.19
2019-05-23T05:59:23.439Z,1009.12
2019-05-23T06:00:23.051Z,1009.25
2019-05-23T06:01:33.283Z,1009.13
2019-05-23T06:02:22.249Z,1009.12
2019-05-23T06:03:23.910Z,1009.18
2019-05-23T06:04:22.928Z,1009.12
2019-05-23T06:05:22.480Z,1009.12
2019-05-23T06:06:21.969Z,1009.21
2019-05-23T06:07:21.783Z,1009.26
2019-05-23T06:08:21.322Z,1009.17
2019-05-23T06:09:20.915Z,1009.22
2019-05-23T06:10:20.448Z,1009.19
2019-05-23T06:11:20.042Z,1009.23
2019-05-23T06:12:19.546Z,1009.24
2019-05-23T06:13:19.180Z,1009.23
2019-05-23T06:14:18.747Z,1009.20
2019-05-23T06:15:21.265Z,1009.24
2019-05-23T06:16:20.071Z,1009.19
2019-05-23T06:17:19.680Z,1009.22
2019-05-23T06:18:19.246Z,1009.21
2019-05-23T06:19:18.913Z,1009.28
2019-05-23T06:20:18.484Z,1009.26
2019-05-23T06:21:18.158Z,1009.24
2019-05-23T06:22:17.742Z,1009.24
2019-05-23T06:23:17.447Z,1009.38
2019-05-23T06:24:16.986Z,1009.36
2019-05-23T06:25:18.492Z,1009.28
2019-05-23T06:26:17.538Z,1009.36
2019-05-23T06:27:17.016Z,1009.30
2019-05-23T06:28:16.717Z,1009.35
2019-05-23T06:29:16.235Z,1009.36
2019-05-23T06:30:15.837Z,1009.38
2019-05-23T06:31:15.458Z,1009.36
2019-05-23T06:32:14.944Z,1009.39
2019-05-23T06:33:23.464Z,1009.36
2019-05-23T06:34:14.162Z,1009.31
2019-05-23T06:35:13.754Z,1009.29
2019-05-23T06:36:13.450Z,1009.35
2019-05-23T06:37:13.003Z,1009.29
2019-05-23T06:38:12.582Z,1009.34
2019-05-23T06:39:12.200Z,1009.29
2019-05-23T06:40:11.830Z,1009.29
2019-05-23T06:41:11.608Z,1009.33
2019-05-23T06:42:11.040Z,1009.29
2019-05-23T06:43:10.715Z,1009.29
2019-05-23T06:44:10.293Z,1009.28
2019-05-23T06:45:09.929Z,1009.33
2019-05-23T06:46:09.506Z,1009.32
2019-05-23T06:47:13.936Z,1009.30
2019-05-23T06:48:17.427Z,1009.34
2019-05-23T06:49:20.784Z,1009.28
2019-05-23T06:50:27.850Z,1009.35
2019-05-23T06:51:26.370Z,1009.36
2019-05-23T06:52:25.924Z,1009.34
2019-05-23T06:53:30.264Z,1009.19
2019-05-23T06:54:28.848Z,1009.35
2019-05-23T06:55:28.377Z,1009.43
2019-05-23T06:56:28.039Z,1009.30
2019-05-23T06:57:27.610Z,1009.26
2019-05-23T06:58:27.033Z,1009.32
2019-05-23T06:59:26.816Z,1009.30
2019-05-23T07:00:26.150Z,1009.39
2019-05-23T07:01:25.881Z,1009.34
2019-05-23T07:02:25.340Z,1009.28
2019-05-23T07:03:40.595Z,1009.35
2019-05-23T07:04:24.540Z,1009.35
2019-05-23T07:05:23.990Z,1009.38
2019-05-23T07:06:23.691Z,1009.31
2019-05-23T07:07:26.869Z,1009.34
2019-05-23T07:08:25.639Z,1009.34
2019-05-23T07:09:25.280Z,1009.34
2019-05-23T07:10:24.887Z,1009.34
2019-05-23T07:11:24.574Z,1009.44
2019-05-23T07:12:24.206Z,1009.34
2019-05-23T07:13:23.780Z,1009.36
2019-05-23T07:14:23.447Z,1009.38
2019-05-23T07:15:27.688Z,1009.45
2019-05-23T07:16:26.369Z,1009.41
2019-05-23T07:17:25.940Z,1009.47
2019-05-23T07:18:25.440Z,1009.43
2019-05-23T07:19:25.184Z,1009.51
2019-05-23T07:20:24.799Z,1009.49
2019-05-23T07:21:24.442Z,1009.44
2019-05-23T07:22:24.098Z,1009.49
2019-05-23T07:23:23.708Z,1009.48
2019-05-23T07:24:23.355Z,1009.53
2019-05-23T07:25:22.946Z,1009.51
2019-05-23T07:26:22.630Z,1009.47
2019-05-23T07:27:27.005Z,1009.49
2019-05-23T07:28:25.628Z,1009.49
2019-05-23T07:29:25.222Z,1009.47
2019-05-23T07:30:24.868Z,1009.48
2019-05-23T07:31:31.315Z,1009.51
2019-05-23T07:32:28.106Z,1009.53
2019-05-23T07:33:27.550Z,1009.47
2019-05-23T07:34:27.173Z,1009.52
2019-05-23T07:35:26.608Z,1009.52
2019-05-23T07:36:26.320Z,1009.57
2019-05-23T07:37:25.987Z,1009.57
2019-05-23T07:38:25.457Z,1009.53
2019-05-23T07:39:25.135Z,1009.56
2019-05-23T07:40:24.684Z,1009.52
2019-05-23T07:41:24.260Z,1009.56
2019-05-23T07:42:23.919Z,1009.56
2019-05-23T07:43:23.496Z,1009.48
2019-05-23T07:44:23.276Z,1009.52
2019-05-23T07:45:22.794Z,1009.51
2019-05-23T07:46:22.273Z,1009.45
2019-05-23T07:47:21.927Z,1009.45
2019-05-23T07:48:21.501Z,1009.54
2019-05-23T07:49:21.114Z,1009.51
2019-05-23T07:50:20.713Z,1009.53
2019-05-23T07:51:20.342Z,1009.46
2019-05-23T07:52:20.043Z,1009.46
2019-05-23T07:53:19.675Z,1009.44
2019-05-23T07:54:24.025Z,1009.45
2019-05-23T07:55:22.649Z,1009.47
2019-05-23T07:56:27.036Z,1009.50
2019-05-23T07:57:25.691Z,1009.46
2019-05-23T07:58:30.066Z,1009.39
2019-05-23T07:59:28.679Z,1009.39
2019-05-23T08:00:28.262Z,1009.48
2019-05-23T08:01:27.860Z,1009.34
2019-05-23T08:02:27.474Z,1009.35
2019-05-23T08:03:27.139Z,1009.39
2019-05-23T08:04:26.747Z,1009.35
2019-05-23T08:05:26.348Z,1009.40
2019-05-23T08:06:25.927Z,1009.29
2019-05-23T08:07:25.587Z,1009.39
2019-05-23T08:08:25.288Z,1009.45
2019-05-23T08:09:29.624Z,1009.42
2019-05-23T08:10:33.932Z,1009.36
2019-05-23T08:11:32.645Z,1009.38
2019-05-23T08:12:31.277Z,1009.40
2019-05-23T08:13:30.892Z,1009.33
2019-05-23T08:14:30.477Z,1009.30
2019-05-23T08:15:30.023Z,1009.38
2019-05-23T08:16:29.564Z,1009.34
2019-05-23T08:17:33.998Z,1009.33
2019-05-23T08:18:32.673Z,1009.26
2019-05-23T08:19:48.162Z,1009.36
2019-05-23T08:20:31.855Z,1009.33
2019-05-23T08:21:31.449Z,1009.24
2019-05-23T08:22:31.169Z,1009.19
2019-05-23T08:23:30.764Z,1009.30
2019-05-23T08:24:38.191Z,1009.19
2019-05-23T08:25:36.666Z,1009.23
2019-05-23T08:26:39.777Z,1009.25
2019-05-23T08:27:38.705Z,1009.26
2019-05-23T08:28:56.300Z,1009.19
2019-05-23T08:29:42.538Z,1009.19
2019-05-23T08:30:46.106Z,1009.17
2019-05-23T08:31:44.634Z,1009.19
2019-05-23T08:32:44.230Z,1009.26
2019-05-23T08:33:43.816Z,1009.25
2019-05-23T08:34:43.533Z,1009.27
2019-05-23T08:35:43.097Z,1009.23
2019-05-23T08:36:45.649Z,1009.26
2019-05-23T08:37:44.585Z,1009.25
2019-05-23T08:38:44.086Z,1009.19
2019-05-23T08:39:48.486Z,1009.30
2019-05-23T08:40:47.164Z,1009.20
2019-05-23T08:41:46.739Z,1009.23
2019-05-23T08:42:51.147Z,1009.24
2019-05-23T08:43:49.774Z,1009.26
2019-05-23T08:44:49.330Z,1009.15
2019-05-23T08:45:53.650Z,1009.20
2019-05-23T08:46:52.307Z,1009.25
2019-05-23T08:47:51.876Z,1009.14
2019-05-23T08:48:51.445Z,1009.13
2019-05-23T08:49:51.075Z,1009.12
2019-05-23T08:50:51.493Z,1009.16
2019-05-23T08:51:50.369Z,1009.12
2019-05-23T08:52:49.979Z,1009.08
2019-05-23T08:53:49.623Z,1009.08
2019-05-23T08:54:49.244Z,1009.12
2019-05-23T08:55:57.155Z,1009.07
2019-05-23T08:56:55.520Z,1009.10
2019-05-23T08:57:55.191Z,1009.12
2019-05-23T08:58:54.740Z,1009.13
2019-05-23T08:59:54.405Z,1009.07
2019-05-23T09:00:53.959Z,1009.06
2019-05-23T09:02:03.600Z,1009.06
2019-05-23T09:03:01.919Z,1009.00
2019-05-23T09:04:01.465Z,1009.12
2019-05-23T09:05:06.605Z,1009.02
2019-05-23T09:06:04.441Z,1009.04
2019-05-23T09:07:08.849Z,1009.08
2019-05-23T09:08:07.420Z,1009.09
2019-05-23T09:09:27.526Z,1009.12
2019-05-23T09:10:11.472Z,1009.03
2019-05-23T09:11:14.840Z,1008.99
2019-05-23T09:12:13.521Z,1009.04
2019-05-23T09:13:13.051Z,1009.01
2019-05-23T09:14:12.814Z,1009.06
2019-05-23T09:15:12.423Z,1009.05
2019-05-23T09:16:11.976Z,1009.05
2019-05-23T09:17:11.612Z,1008.99
2019-05-23T09:18:11.206Z,1008.98
2019-05-23T09:19:10.827Z,1009.03
2019-05-23T09:20:10.473Z,1008.98
2019-05-23T09:21:10.110Z,1008.98
2019-05-23T09:22:09.808Z,1008.95
2019-05-23T09:23:09.376Z,1009.03
2019-05-23T09:24:13.737Z,1008.96
2019-05-23T09:25:12.340Z,1008.95
2019-05-23T09:26:11.903Z,1008.98
2019-05-23T09:27:16.217Z,1008.98
2019-05-23T09:28:14.885Z,1008.94
2019-05-23T09:29:14.493Z,1008.90
2019-05-23T09:30:14.072Z,1008.98
2019-05-23T09:31:13.587Z,1008.94
2019-05-23T09:32:13.260Z,1009.00
2019-05-23T09:33:17.408Z,1009.02
2019-05-23T09:34:16.010Z,1008.93
2019-05-23T09:35:20.808Z,1009.05
2019-05-23T09:36:15.187Z,1009.04
2019-05-23T09:37:19.742Z,1008.94
2019-05-23T09:38:18.383Z,1008.96
2019-05-23T09:39:18.063Z,1008.98
2019-05-23T09:40:17.504Z,1008.94
2019-05-23T09:41:17.214Z,1008.93
2019-05-23T09:42:16.820Z,1008.88
2019-05-23T09:43:21.334Z,1008.90
2019-05-23T09:44:19.973Z,1008.88
2019-05-23T09:45:19.524Z,1008.86
2019-05-23T09:46:19.243Z,1008.88
2019-05-23T09:47:18.883Z,1008.86
2019-05-23T09:48:27.147Z,1008.82
2019-05-23T09:49:25.448Z,1008.92
2019-05-23T09:50:29.869Z,1008.91
2019-05-23T09:51:33.283Z,1008.86
2019-05-23T09:52:31.828Z,1008.85
2019-05-23T09:53:31.453Z,1008.87
2019-05-23T09:54:31.079Z,1008.81
2019-05-23T09:55:35.565Z,1008.75
2019-05-23T09:56:34.227Z,1008.83
2019-05-23T09:57:33.794Z,1008.76
2019-05-23T09:58:33.399Z,1008.79
2019-05-23T09:59:33.178Z,1008.79
2019-05-23T10:00:32.747Z,1008.79
2019-05-23T10:01:32.388Z,1008.72
2019-05-23T10:02:36.611Z,1008.78
2019-05-23T10:03:40.242Z,1008.77
2019-05-23T10:04:38.947Z,1008.71
2019-05-23T10:05:44.336Z,1008.74
2019-05-23T10:06:45.862Z,1008.72
2019-05-23T10:07:41.362Z,1008.71
2019-05-23T10:08:45.568Z,1008.64
2019-05-23T10:09:44.185Z,1008.62
2019-05-23T10:10:43.752Z,1008.66
2019-05-23T10:11:43.799Z,1008.65
2019-05-23T10:12:47.949Z,1008.67
2019-05-23T10:13:46.577Z,1008.62
2019-05-23T10:14:54.637Z,1008.62
2019-05-23T10:15:53.070Z,1008.66
2019-05-23T10:16:52.538Z,1008.63
2019-05-23T10:17:51.955Z,1008.65
2019-05-23T10:18:56.435Z,1008.54
2019-05-23T10:19:56.948Z,1008.57
2019-05-23T10:20:55.897Z,1008.57
2019-05-23T10:21:55.513Z,1008.56
2019-05-23T10:22:55.140Z,1008.64
2019-05-23T10:23:54.682Z,1008.59
2019-05-23T10:24:54.424Z,1008.62
2019-05-23T10:26:02.526Z,1008.55
2019-05-23T10:27:00.906Z,1008.63
2019-05-23T10:28:00.262Z,1008.59
2019-05-23T10:29:08.422Z,1008.65
2019-05-23T10:30:06.877Z,1008.54
2019-05-23T10:31:06.403Z,1008.48
2019-05-23T10:32:06.086Z,1008.55
2019-05-23T10:33:11.631Z,1008.53
2019-05-23T10:34:05.285Z,1008.53
2019-05-23T10:35:04.919Z,1008.54
2019-05-23T10:36:09.215Z,1008.57
2019-05-23T10:37:07.905Z,1008.46
2019-05-23T10:38:07.539Z,1008.46
2019-05-23T10:39:07.028Z,1008.49
2019-05-23T10:40:06.716Z,1008.56
2019-05-23T10:41:06.271Z,1008.47
2019-05-23T10:42:05.812Z,1008.48
2019-05-23T10:43:05.547Z,1008.56
2019-05-23T10:44:05.133Z,1008.55
2019-05-23T10:45:04.812Z,1008.57
2019-05-23T10:46:04.387Z,1008.53
2019-05-23T10:47:08.607Z,1008.49
2019-05-23T10:48:11.972Z,1008.47
2019-05-23T10:49:10.595Z,1008.45
2019-05-23T10:50:10.477Z,1008.39
2019-05-23T10:51:09.932Z,1008.49
2019-05-23T10:52:09.498Z,1008.40
2019-05-23T10:53:13.943Z,1008.39
2019-05-23T10:54:12.470Z,1008.45
2019-05-23T10:55:16.836Z,1008.51
2019-05-23T10:56:20.087Z,1008.37
2019-05-23T10:57:15.011Z,1008.46
2019-05-23T10:58:14.740Z,1008.36
2019-05-23T10:59:18.987Z,1008.34
2019-05-23T11:00:17.705Z,1008.26
2019-05-23T11:01:17.337Z,1008.27
2019-05-23T11:02:21.728Z,1008.26
2019-05-23T11:03:25.266Z,1008.27
2019-05-23T11:04:23.891Z,1008.24
2019-05-23T11:05:28.232Z,1008.19
2019-05-23T11:06:26.987Z,1008.17
2019-05-23T11:07:26.348Z,1008.14
2019-05-23T11:08:29.486Z,1008.17
2019-05-23T11:09:37.156Z,1008.06
2019-05-23T11:10:25.109Z,1008.12
2019-05-23T11:11:29.435Z,1008.19
2019-05-23T11:12:28.091Z,1008.07
2019-05-23T11:13:27.621Z,1008.14
2019-05-23T11:14:32.041Z,1008.02
2019-05-23T11:15:30.683Z,1008.13
2019-05-23T11:16:30.259Z,1008.03
2019-05-23T11:17:29.865Z,1008.07
2019-05-23T11:18:29.464Z,1008.11
2019-05-23T11:19:29.187Z,1008.06
2019-05-23T11:20:28.865Z,1008.11
2019-05-23T11:21:28.420Z,1008.01
2019-05-23T11:22:28.052Z,1008.12
2019-05-23T11:23:27.603Z,1008.06
2019-05-23T11:24:27.199Z,1008.03
2019-05-23T11:25:26.819Z,1008.04
2019-05-23T11:26:31.347Z,1008.08
2019-05-23T11:27:29.961Z,1008.00
2019-05-23T11:28:29.525Z,1008.04
2019-05-23T11:29:32.171Z,1008.04
2019-05-23T11:30:31.136Z,1008.11
2019-05-23T11:31:30.470Z,1008.08
2019-05-23T11:32:30.192Z,1008.06
2019-05-23T11:33:38.113Z,1008.10
2019-05-23T11:34:40.161Z,1008.08
2019-05-23T11:35:38.847Z,1008.09
2019-05-23T11:36:38.460Z,1008.04
2019-05-23T11:37:42.101Z,1008.08
2019-05-23T11:38:39.670Z,1007.95
2019-05-23T11:39:49.391Z,1008.04
2019-05-23T11:40:38.953Z,1008.11
2019-05-23T11:41:38.631Z,1008.01
2019-05-23T11:42:41.929Z,1007.95
2019-05-23T11:43:45.551Z,1007.96
2019-05-23T11:44:49.039Z,1007.93
2019-05-23T11:45:47.673Z,1007.90
2019-05-23T11:46:47.329Z,1007.88
2019-05-23T11:47:51.755Z,1007.92
2019-05-23T11:48:50.253Z,1007.83
2019-05-23T11:49:54.580Z,1007.86
2019-05-23T11:50:53.261Z,1007.85
2019-05-23T11:51:57.866Z,1007.88
2019-05-23T11:53:01.242Z,1007.83
2019-05-23T11:54:07.768Z,1007.79
2019-05-23T11:54:59.372Z,1007.82
2019-05-23T11:55:59.031Z,1007.73
2019-05-23T11:56:58.574Z,1007.73
2019-05-23T11:57:58.089Z,1007.82
2019-05-23T11:59:02.469Z,1007.75
2019-05-23T12:00:01.079Z,1007.72
2019-05-23T12:01:05.459Z,1007.79
2019-05-23T12:02:04.104Z,1007.72
2019-05-23T12:03:03.759Z,1007.75
2019-05-23T12:04:03.477Z,1007.76
2019-05-23T12:05:03.027Z,1007.79
2019-05-23T12:06:05.613Z,1007.73
2019-05-23T12:07:02.336Z,1007.66
2019-05-23T12:08:01.914Z,1007.78
2019-05-23T12:09:01.519Z,1007.81